Time;durP1;ratioP1;P1;durP2;ratioP2;P2;SDS_P1;SDS_P2;PMS_P1;PMS_P2;Temp;Humidity;BMP_temperature;BMP_pressure;BME280_temperature;BME280_humidity;BME280_pressure;Samples;Min_cycle;Max_cycle;Signal;HPM_P1;HPM_P2
2022/09/22 00:01:17;;;;;;;4.70;2.30;;;7.00;99.90;;;;;;5049785;28;20303;-51
2022/09/22 00:03:48;;;;;;;4.43;2.40;;;7.00;99.90;;;;;;5050302;28;20298;-52
2022/09/22 00:06:18;;;;;;;8.10;1.93;;;7.00;99.90;;;;;;5050665;28;20297;-51
2022/09/22 00:08:48;;;;;;;2.50;2.20;;;7.10;99.90;;;;;;5050455;28;20208;-51
2022/09/22 00:11:20;;;;;;;8.97;2.53;;;7.10;99.90;;;;;;5050202;28;20208;-50
2022/09/22 00:13:51;;;;;;;5.13;2.33;;;7.10;99.90;;;;;;5049910;28;20314;-51
2022/09/22 00:16:21;;;;;;;5.10;2.37;;;7.00;99.90;;;;;;5050359;28;20241;-50
2022/09/22 00:18:50;;;;;;;4.53;2.20;;;7.00;99.90;;;;;;5050498;28;20228;-52
2022/09/22 00:21:20;;;;;;;4.63;2.37;;;7.00;99.90;;;;;;5049612;28;20292;-52
2022/09/22 00:23:49;;;;;;;2.63;2.23;;;6.90;99.90;;;;;;5049771;28;20283;-51
2022/09/22 00:26:21;;;;;;;4.60;2.53;;;6.90;99.90;;;;;;5050156;28;20221;-50
2022/09/22 00:28:51;;;;;;;3.63;2.40;;;6.90;99.90;;;;;;5049346;28;20211;-51
2022/09/22 00:31:23;;;;;;;3.27;2.10;;;6.90;99.90;;;;;;5049723;28;20244;-51
2022/09/22 00:33:53;;;;;;;2.80;2.20;;;6.90;99.90;;;;;;5048192;28;20313;-52
2022/09/22 00:36:24;;;;;;;7.67;2.97;;;6.90;99.90;;;;;;5049772;28;20292;-51
2022/09/22 00:38:53;;;;;;;5.13;2.20;;;6.90;99.90;;;;;;5049522;28;20682;-51
2022/09/22 00:41:24;;;;;;;3.83;2.30;;;6.90;99.90;;;;;;5049960;28;20239;-51
2022/09/22 00:44:30;;;;;;;5.03;2.07;;;6.80;99.90;;;;;;5049531;28;20210;-52
2022/09/22 00:47:03;;;;;;;3.57;2.10;;;6.90;99.90;;;;;;5049459;28;20293;-52
2022/09/22 00:49:37;;;;;;;4.47;2.60;;;6.90;99.90;;;;;;5049788;28;20225;-51
2022/09/22 00:52:06;;;;;;;3.70;2.30;;;6.90;99.90;;;;;;5049010;28;20426;-50
2022/09/22 00:54:35;;;;;;;3.67;2.37;;;6.80;99.90;;;;;;5049563;28;20583;-51
2022/09/22 00:57:08;;;;;;;2.97;2.33;;;6.80;99.90;;;;;;5048764;28;20561;-51
2022/09/22 00:59:37;;;;;;;3.97;2.13;;;6.80;99.90;;;;;;5049759;28;20812;-51
2022/09/22 01:02:05;;;;;;;3.10;2.10;;;6.80;99.90;;;;;;5048810;28;20214;-51
2022/09/22 01:04:34;;;;;;;8.13;5.30;;;6.80;99.90;;;;;;5049300;28;20211;-52
2022/09/22 01:07:03;;;;;;;4.67;2.17;;;6.70;99.90;;;;;;5049271;28;20652;-51
2022/09/22 01:09:32;;;;;;;3.77;2.40;;;6.70;99.90;;;;;;5049099;28;20237;-51
2022/09/22 01:12:01;;;;;;;3.90;2.30;;;6.70;99.90;;;;;;5048927;28;20215;-51
2022/09/22 01:14:42;;;;;;;3.17;2.23;;;6.70;99.90;;;;;;5035634;28;20583;-51
2022/09/22 01:17:17;;;;;;;3.43;2.20;;;6.70;99.90;;;;;;5049489;28;20209;-50
2022/09/22 01:20:16;;;;;;;5.60;2.23;;;6.70;99.90;;;;;;5049292;28;20308;-51
2022/09/22 01:23:23;;;;;;;4.03;2.10;;;6.70;99.90;;;;;;5048036;28;20203;-52
2022/09/22 01:26:30;;;;;;;2.70;2.03;;;6.60;99.90;;;;;;5049386;28;20639;-51
2022/09/22 01:29:21;;;;;;;5.07;2.30;;;6.60;99.90;;;;;;5042853;28;20235;-51
2022/09/22 01:31:56;;;;;;;3.67;2.23;;;6.60;99.90;;;;;;5037937;28;20209;-51
2022/09/22 01:34:30;;;;;;;4.17;2.30;;;6.60;99.90;;;;;;5048445;28;20648;-51
2022/09/22 01:37:08;;;;;;;4.33;2.23;;;6.60;99.90;;;;;;5048426;28;20290;-51
2022/09/22 01:39:42;;;;;;;4.43;2.33;;;6.50;99.90;;;;;;5048785;28;20919;-53
2022/09/22 01:42:17;;;;;;;2.80;2.50;;;6.50;99.90;;;;;;5048691;28;20251;-51
2022/09/22 01:44:51;;;;;;;3.80;2.03;;;6.50;99.90;;;;;;5048756;28;20308;-51
2022/09/22 01:47:24;;;;;;;3.63;2.37;;;6.50;99.90;;;;;;5049758;28;20236;-52
2022/09/22 01:49:54;;;;;;;3.23;2.23;;;6.50;99.90;;;;;;5049334;28;20311;-51
2022/09/22 01:52:27;;;;;;;5.90;2.63;;;6.50;99.90;;;;;;5048659;28;20295;-51
2022/09/22 01:55:00;;;;;;;3.47;2.00;;;6.50;99.90;;;;;;5049548;28;20211;-50
2022/09/22 01:57:31;;;;;;;6.80;2.40;;;6.40;99.90;;;;;;5049636;28;20229;-50
2022/09/22 02:00:03;;;;;;;3.97;2.30;;;6.40;99.90;;;;;;5049504;28;20331;-51
2022/09/22 02:02:40;;;;;;;2.93;2.27;;;6.40;99.90;;;;;;5048801;28;20292;-51
2022/09/22 02:05:15;;;;;;;3.83;2.40;;;6.40;99.90;;;;;;5048920;28;20752;-51
2022/09/22 02:07:49;;;;;;;3.20;2.40;;;6.40;99.90;;;;;;5048548;28;20688;-51
2022/09/22 02:10:22;;;;;;;4.73;2.37;;;6.40;99.90;;;;;;5048116;28;20654;-52
2022/09/22 02:12:51;;;;;;;4.50;2.40;;;6.30;99.90;;;;;;5034268;28;20303;-51
2022/09/22 02:18:11;;;;;;;4.93;2.43;;;6.40;99.90;;;;;;5048771;28;20668;-51
2022/09/22 02:20:39;;;;;;;3.63;2.40;;;6.40;99.90;;;;;;5048719;28;20225;-50
2022/09/22 02:23:08;;;;;;;3.57;2.30;;;6.30;99.90;;;;;;5048273;28;20210;-51
2022/09/22 02:25:37;;;;;;;7.33;2.63;;;6.30;99.90;;;;;;5048489;28;20702;-51
2022/09/22 02:28:07;;;;;;;4.97;2.43;;;6.30;99.90;;;;;;5048728;28;20224;-52
2022/09/22 02:30:35;;;;;;;4.70;2.77;;;6.30;99.90;;;;;;5050226;28;20248;-51
2022/09/22 02:33:04;;;;;;;3.83;2.30;;;6.30;99.90;;;;;;5050705;28;20332;-51
2022/09/22 02:35:37;;;;;;;6.20;2.47;;;6.30;99.90;;;;;;5052232;28;20216;-52
2022/09/22 02:38:11;;;;;;;4.50;2.60;;;6.30;99.90;;;;;;5051996;28;20220;-51
2022/09/22 02:40:46;;;;;;;4.37;2.40;;;6.20;99.90;;;;;;5051893;28;20225;-51
2022/09/22 02:43:22;;;;;;;7.47;2.20;;;6.20;99.90;;;;;;5042996;28;20205;-51
2022/09/22 02:45:55;;;;;;;4.60;2.33;;;6.20;99.90;;;;;;5051761;28;20307;-51
2022/09/22 02:48:25;;;;;;;2.57;2.33;;;6.20;99.90;;;;;;5051934;28;20206;-51
2022/09/22 02:50:55;;;;;;;4.27;2.70;;;6.10;99.90;;;;;;5051569;28;20625;-51
2022/09/22 02:53:23;;;;;;;4.37;2.40;;;6.20;99.90;;;;;;5051115;28;20317;-52
2022/09/22 02:55:51;;;;;;;6.50;2.40;;;6.10;99.90;;;;;;5051868;28;20659;-52
2022/09/22 02:58:19;;;;;;;4.37;2.20;;;6.10;99.90;;;;;;5051594;28;20295;-51
2022/09/22 03:00:47;;;;;;;3.47;2.50;;;6.10;99.90;;;;;;5051714;28;20271;-51
2022/09/22 03:03:15;;;;;;;6.17;2.60;;;6.10;99.90;;;;;;5041341;28;20214;-52
2022/09/22 03:05:43;;;;;;;2.83;2.27;;;6.10;99.90;;;;;;5049489;28;20294;-51
2022/09/22 03:08:13;;;;;;;3.87;2.43;;;6.10;99.90;;;;;;5051598;28;20298;-51
2022/09/22 03:10:41;;;;;;;6.00;2.30;;;6.00;99.90;;;;;;5051301;28;20238;-50
2022/09/22 03:13:09;;;;;;;4.20;2.40;;;6.00;99.90;;;;;;5050962;28;20619;-52
2022/09/22 03:15:45;;;;;;;3.60;2.60;;;6.00;99.90;;;;;;5051580;28;20213;-51
2022/09/22 03:18:13;;;;;;;2.60;2.20;;;6.00;99.90;;;;;;5051653;28;20214;-51
2022/09/22 03:20:42;;;;;;;2.80;2.20;;;6.00;99.90;;;;;;5051569;28;20232;-51
2022/09/22 03:23:10;;;;;;;5.20;2.30;;;6.00;99.90;;;;;;5051069;28;20219;-51
2022/09/22 03:25:39;;;;;;;5.17;2.20;;;6.00;99.90;;;;;;5051344;28;20214;-51
2022/09/22 03:28:07;;;;;;;5.03;2.53;;;6.00;99.90;;;;;;5044008;28;20202;-51
2022/09/22 03:30:36;;;;;;;3.77;2.43;;;6.00;99.90;;;;;;5050634;28;20226;-51
2022/09/22 03:33:04;;;;;;;3.80;2.20;;;6.00;99.90;;;;;;5047542;28;20606;-51
2022/09/22 03:35:32;;;;;;;4.77;2.87;;;5.90;99.90;;;;;;5050388;28;20222;-51
2022/09/22 03:38:00;;;;;;;3.10;2.30;;;5.90;99.90;;;;;;5050407;28;20214;-51
2022/09/22 03:40:28;;;;;;;4.87;2.80;;;5.90;99.90;;;;;;5050669;28;20576;-51
2022/09/22 03:42:57;;;;;;;2.80;2.20;;;5.90;99.90;;;;;;5058105;28;20810;-51
2022/09/22 03:45:26;;;;;;;3.00;2.10;;;5.90;99.90;;;;;;5051086;28;20201;-51
2022/09/22 03:47:54;;;;;;;5.83;2.90;;;5.90;99.90;;;;;;5051019;28;20207;-51
2022/09/22 03:50:22;;;;;;;2.87;2.37;;;5.90;99.90;;;;;;5050582;28;20255;-51
2022/09/22 03:52:50;;;;;;;3.87;2.13;;;5.90;99.90;;;;;;5050256;28;20309;-52
2022/09/22 03:55:18;;;;;;;6.20;2.57;;;5.80;99.90;;;;;;5050768;28;20308;-52
2022/09/22 03:57:46;;;;;;;4.63;2.73;;;5.80;99.90;;;;;;5050491;28;20243;-51
2022/09/22 04:00:16;;;;;;;4.17;2.50;;;5.80;99.90;;;;;;5050009;28;20959;-51
2022/09/22 04:02:44;;;;;;;5.10;2.30;;;5.80;99.90;;;;;;5050028;28;20205;-52
2022/09/22 04:05:12;;;;;;;8.47;2.67;;;5.80;99.90;;;;;;5050581;28;20348;-51
2022/09/22 04:07:40;;;;;;;5.60;3.73;;;5.70;99.90;;;;;;5036636;28;20217;-51
2022/09/22 04:10:09;;;;;;;5.93;3.10;;;5.80;99.90;;;;;;5050305;28;20237;-51
2022/09/22 04:12:37;;;;;;;5.10;2.70;;;5.80;99.90;;;;;;5049774;28;20213;-52
2022/09/22 04:15:06;;;;;;;7.60;3.50;;;5.70;99.90;;;;;;5050429;28;20239;-51
2022/09/22 04:17:36;;;;;;;3.43;2.00;;;5.70;99.90;;;;;;5049958;28;20206;-51
2022/09/22 04:20:05;;;;;;;4.93;2.20;;;5.80;99.90;;;;;;5049902;28;20247;-51
2022/09/22 04:22:33;;;;;;;4.20;2.40;;;5.70;99.90;;;;;;5049754;28;20206;-51
2022/09/22 04:25:01;;;;;;;5.70;2.87;;;5.70;99.90;;;;;;5050393;28;20300;-51
2022/09/22 04:27:29;;;;;;;4.50;2.60;;;5.70;99.90;;;;;;5049838;28;20625;-51
2022/09/22 04:29:59;;;;;;;5.33;2.47;;;5.70;99.90;;;;;;5050019;28;20308;-51
2022/09/22 04:32:27;;;;;;;3.30;2.00;;;5.70;99.90;;;;;;5048086;28;20566;-51
2022/09/22 04:34:56;;;;;;;5.20;2.27;;;5.70;99.90;;;;;;5049965;28;20222;-51
2022/09/22 04:37:24;;;;;;;2.23;2.03;;;5.60;99.90;;;;;;5049873;28;20753;-52
2022/09/22 04:39:54;;;;;;;5.90;2.30;;;5.60;99.90;;;;;;5045512;28;20225;-51
2022/09/22 04:42:22;;;;;;;4.23;2.33;;;5.60;99.90;;;;;;5049101;28;20299;-51
2022/09/22 04:44:50;;;;;;;5.20;2.37;;;5.60;99.90;;;;;;5049843;28;20297;-52
2022/09/22 04:47:18;;;;;;;3.43;2.23;;;5.60;99.90;;;;;;5048849;28;20589;-50
2022/09/22 04:49:46;;;;;;;3.87;2.47;;;5.60;99.90;;;;;;5049829;28;20331;-51
2022/09/22 04:52:16;;;;;;;3.77;1.97;;;5.60;99.90;;;;;;5048925;28;20295;-51
2022/09/22 04:54:44;;;;;;;5.03;2.20;;;5.60;99.90;;;;;;5049530;28;20318;-51
2022/09/22 04:57:12;;;;;;;4.00;2.30;;;5.60;99.90;;;;;;5049363;28;20320;-51
2022/09/22 04:59:45;;;;;;;3.20;2.37;;;5.50;99.90;;;;;;5049698;28;20675;-51
2022/09/22 05:02:13;;;;;;;2.57;2.23;;;5.50;99.90;;;;;;5049218;28;20202;-52
2022/09/22 05:04:41;;;;;;;2.80;2.20;;;5.50;99.90;;;;;;5049703;28;20298;-51
2022/09/22 05:07:09;;;;;;;3.87;2.40;;;5.50;99.90;;;;;;5049537;28;20213;-51
2022/09/22 05:09:38;;;;;;;3.70;2.67;;;5.50;99.90;;;;;;5049218;28;20242;-51
2022/09/22 05:12:07;;;;;;;10.97;2.90;;;5.50;99.90;;;;;;5049007;28;20208;-51
2022/09/22 05:14:35;;;;;;;4.17;2.40;;;5.50;99.90;;;;;;5049203;28;20706;-51
2022/09/22 05:17:03;;;;;;;4.63;2.43;;;5.60;99.90;;;;;;5049353;28;20260;-52
2022/09/22 05:19:32;;;;;;;4.53;2.80;;;5.60;99.90;;;;;;5049253;28;20231;-52
2022/09/22 05:22:00;;;;;;;4.33;3.07;;;5.50;99.90;;;;;;5048194;28;20323;-51
2022/09/22 05:24:28;;;;;;;4.13;2.80;;;5.50;99.90;;;;;;5049347;28;20208;-51
2022/09/22 05:26:58;;;;;;;5.30;2.80;;;5.60;99.90;;;;;;5048834;28;20295;-51
2022/09/22 05:29:26;;;;;;;4.27;2.60;;;5.60;99.90;;;;;;5048060;28;20239;-51
2022/09/22 05:31:55;;;;;;;4.47;2.57;;;5.60;99.90;;;;;;5048031;28;20232;-51
2022/09/22 05:34:23;;;;;;;5.57;2.90;;;5.70;99.90;;;;;;5043895;28;20203;-51
2022/09/22 05:36:51;;;;;;;2.97;2.60;;;5.70;99.90;;;;;;5046706;28;20216;-51
2022/09/22 05:39:20;;;;;;;4.63;2.70;;;5.70;99.90;;;;;;5046612;28;20240;-50
2022/09/22 05:41:48;;;;;;;4.53;3.23;;;5.70;99.90;;;;;;5047139;28;20919;-52
2022/09/22 05:44:18;;;;;;;4.90;3.07;;;5.70;99.90;;;;;;5048254;28;20725;-51
2022/09/22 05:46:46;;;;;;;7.30;3.70;;;5.70;99.90;;;;;;5048092;28;20288;-51
2022/09/22 05:49:14;;;;;;;8.13;3.50;;;5.70;99.90;;;;;;5048038;28;20221;-51
2022/09/22 05:51:42;;;;;;;6.87;3.10;;;5.70;99.90;;;;;;5046633;28;20296;-52
2022/09/22 05:54:11;;;;;;;4.73;3.37;;;5.70;99.90;;;;;;5048082;28;20204;-51
2022/09/22 05:56:39;;;;;;;5.33;3.00;;;5.80;99.90;;;;;;5048015;28;20312;-51
2022/09/22 05:59:07;;;;;;;5.10;2.80;;;5.80;99.90;;;;;;5047684;28;20320;-52
2022/09/22 06:01:37;;;;;;;5.73;2.70;;;5.80;99.90;;;;;;5046862;28;20255;-52
2022/09/22 06:04:05;;;;;;;3.63;2.63;;;5.90;99.90;;;;;;5047602;28;20328;-52
2022/09/22 06:06:33;;;;;;;3.07;2.60;;;5.90;99.90;;;;;;5051691;28;20287;-50
2022/09/22 06:09:01;;;;;;;6.00;2.80;;;5.90;99.90;;;;;;5051657;28;20320;-52
2022/09/22 06:11:29;;;;;;;6.30;3.03;;;6.00;99.90;;;;;;5052045;28;20944;-51
2022/09/22 06:13:57;;;;;;;9.47;5.43;;;6.00;99.90;;;;;;5050905;28;20206;-52
2022/09/22 06:16:25;;;;;;;5.97;2.60;;;6.10;99.90;;;;;;5051903;28;20220;-51
2022/09/22 06:18:54;;;;;;;2.90;2.20;;;6.10;99.90;;;;;;5051604;28;20264;-51
2022/09/22 06:21:23;;;;;;;2.70;2.40;;;6.20;99.90;;;;;;5051756;28;20577;-51
2022/09/22 06:23:51;;;;;;;5.13;2.50;;;6.20;99.90;;;;;;5049836;28;20208;-52
2022/09/22 06:26:19;;;;;;;69.87;25.80;;;6.30;99.90;;;;;;5033449;28;20209;-51
2022/09/22 06:28:47;;;;;;;9.67;4.70;;;6.30;99.90;;;;;;5045663;28;20209;-52
2022/09/22 06:31:15;;;;;;;9.07;3.93;;;6.40;99.90;;;;;;5051010;28;20201;-51
2022/09/22 06:33:47;;;;;;;8.67;4.03;;;6.50;99.90;;;;;;5048666;28;20251;-51
2022/09/22 06:36:22;;;;;;;8.90;5.23;;;6.50;99.90;;;;;;5050460;28;20271;-51
2022/09/22 06:38:51;;;;;;;7.40;4.20;;;6.70;99.90;;;;;;5048446;28;20209;-51
2022/09/22 06:41:19;;;;;;;8.97;4.13;;;6.90;99.90;;;;;;5051605;28;20316;-51
2022/09/22 06:43:48;;;;;;;13.07;10.20;;;7.40;99.90;;;;;;5051237;28;20210;-51
2022/09/22 06:46:17;;;;;;;19.77;17.77;;;8.00;99.90;;;;;;5050922;28;21008;-52
2022/09/22 06:48:48;;;;;;;18.93;16.93;;;8.50;99.90;;;;;;5050376;28;20692;-51
2022/09/22 06:51:18;;;;;;;52.63;44.33;;;8.90;99.90;;;;;;5051300;28;20742;-52
2022/09/22 06:53:46;;;;;;;94.83;85.23;;;9.20;99.90;;;;;;5050525;28;20300;-51
2022/09/22 06:56:19;;;;;;;107.47;96.93;;;9.40;99.90;;;;;;5051783;28;20217;-50
2022/09/22 06:58:48;;;;;;;94.97;85.00;;;9.60;99.90;;;;;;5050068;28;20666;-51
2022/09/22 07:01:36;;;;;;;88.80;79.77;;;9.90;99.90;;;;;;5050855;28;20201;-51
2022/09/22 07:04:04;;;;;;;129.43;116.47;;;10.00;99.90;;;;;;5050337;28;20628;-51
2022/09/22 07:06:34;;;;;;;128.53;117.10;;;10.20;99.90;;;;;;5050996;28;20670;-52
2022/09/22 07:09:03;;;;;;;161.03;143.43;;;10.30;99.90;;;;;;5050751;28;20232;-52
2022/09/22 07:11:31;;;;;;;203.27;183.73;;;10.50;99.90;;;;;;5049690;28;20292;-51
2022/09/22 07:14:06;;;;;;;156.57;139.77;;;10.60;99.90;;;;;;5048338;28;20836;-52
2022/09/22 07:16:34;;;;;;;156.77;141.10;;;10.70;99.90;;;;;;5049302;28;20236;-51
2022/09/22 07:19:04;;;;;;;172.63;154.77;;;10.90;99.90;;;;;;5046991;28;20303;-52
2022/09/22 07:21:36;;;;;;;184.10;166.80;;;11.00;99.90;;;;;;5050490;28;20674;-52
2022/09/22 07:24:07;;;;;;;160.60;144.07;;;11.00;99.90;;;;;;5036528;28;20213;-51
2022/09/22 07:26:37;;;;;;;161.20;144.73;;;11.20;99.90;;;;;;5044334;28;20730;-52
2022/09/22 07:29:07;;;;;;;161.00;144.67;;;11.30;99.90;;;;;;5048160;28;20313;-52
2022/09/22 07:31:35;;;;;;;175.13;157.93;;;11.60;99.90;;;;;;5048901;28;20644;-51
2022/09/22 07:34:04;;;;;;;192.27;172.50;;;11.70;99.90;;;;;;5047159;28;20217;-51
2022/09/22 07:36:35;;;;;;;179.03;160.23;;;12.00;99.90;;;;;;5049000;28;20588;-51
2022/09/22 07:39:06;;;;;;;207.73;190.03;;;12.00;99.90;;;;;;5047598;28;20405;-52
2022/09/22 07:41:40;;;;;;;205.27;183.63;;;12.10;99.90;;;;;;5040859;28;20738;-51
2022/09/22 07:46:55;;;;;;;187.20;157.10;;;12.30;99.90;;;;;;5048001;28;20324;-52
2022/09/22 07:49:23;;;;;;;135.67;121.10;;;12.30;99.90;;;;;;5045630;28;20240;-51
2022/09/22 07:51:53;;;;;;;86.73;77.93;;;12.30;99.90;;;;;;5049077;28;20960;-51
2022/09/22 07:54:22;;;;;;;28.80;24.80;;;12.20;99.90;;;;;;5048968;28;20213;-51
2022/09/22 07:56:56;;;;;;;41.27;37.10;;;12.10;99.90;;;;;;5038356;28;20309;-51
2022/09/22 07:59:26;;;;;;;55.30;51.30;;;12.10;99.90;;;;;;5048253;28;20225;-52
2022/09/22 08:01:54;;;;;;;19.87;17.97;;;12.10;99.90;;;;;;5049201;28;20205;-51
2022/09/22 08:04:25;;;;;;;5.80;5.13;;;12.10;99.90;;;;;;5049226;28;20210;-52
2022/09/22 08:06:55;;;;;;;33.17;30.30;;;12.10;99.90;;;;;;5048033;28;20263;-52
2022/09/22 08:09:24;;;;;;;26.73;24.50;;;12.20;99.90;;;;;;5047250;28;20386;-52
2022/09/22 08:11:52;;;;;;;10.60;8.87;;;12.10;99.90;;;;;;5043778;28;20289;-52
2022/09/22 08:14:22;;;;;;;32.20;29.37;;;12.20;99.90;;;;;;5038941;28;20232;-52
2022/09/22 08:16:52;;;;;;;8.07;7.37;;;12.30;99.90;;;;;;5047230;28;20218;-51
2022/09/22 08:19:22;;;;;;;15.60;14.00;;;12.30;99.90;;;;;;5048146;28;20267;-51
2022/09/22 08:21:52;;;;;;;11.17;9.07;;;12.30;99.90;;;;;;5039727;28;20212;-51
2022/09/22 08:24:22;;;;;;;11.30;10.13;;;12.50;99.90;;;;;;5049485;28;20229;-50
2022/09/22 08:26:53;;;;;;;12.03;11.00;;;12.40;99.90;;;;;;5048990;28;20789;-51
2022/09/22 08:29:21;;;;;;;14.27;12.57;;;12.60;99.90;;;;;;5048641;28;20315;-51
2022/09/22 08:31:50;;;;;;;8.73;6.43;;;12.60;99.90;;;;;;5048713;28;20734;-52
2022/09/22 08:34:19;;;;;;;10.53;9.30;;;12.70;99.90;;;;;;5049533;28;20210;-52
2022/09/22 08:36:47;;;;;;;34.63;31.47;;;12.70;99.90;;;;;;5048754;28;20221;-51
2022/09/22 08:39:17;;;;;;;8.90;5.77;;;12.80;99.90;;;;;;5049221;28;20234;-52
2022/09/22 08:42:00;;;;;;;9.77;8.80;;;12.80;99.90;;;;;;5048730;28;20212;-51
2022/09/22 08:44:31;;;;;;;13.73;11.30;;;12.80;99.90;;;;;;5049173;28;20300;-51
2022/09/22 08:47:01;;;;;;;14.57;12.87;;;12.80;99.90;;;;;;5049186;28;20294;-51
2022/09/22 08:52:30;;;;;;;7.80;5.70;;;13.00;99.90;;;;;;5048481;28;20296;-52
2022/09/22 08:55:00;;;;;;;14.87;12.23;;;13.00;99.90;;;;;;5049096;28;20292;-51
2022/09/22 08:57:55;;;;;;;20.70;18.53;;;13.10;99.90;;;;;;5048463;28;20312;-52
2022/09/22 09:00:25;;;;;;;23.70;19.10;;;13.10;99.90;;;;;;5048538;28;20353;-51
2022/09/22 09:03:15;;;;;;;15.13;13.83;;;13.20;99.90;;;;;;5048881;28;20356;-52
2022/09/22 09:06:08;;;;;;;15.00;13.00;;;13.30;99.90;;;;;;5048626;28;20213;-52
2022/09/22 09:09:03;;;;;;;17.43;15.67;;;13.30;99.90;;;;;;5048701;28;20718;-52
2022/09/22 09:11:57;;;;;;;22.93;20.10;;;13.40;99.90;;;;;;5037628;28;20206;-52
2022/09/22 09:14:55;;;;;;;11.87;10.67;;;13.50;99.90;;;;;;5049001;28;20360;-51
2022/09/22 09:17:27;;;;;;;28.87;26.27;;;13.60;99.90;;;;;;5048710;28;20348;-51
2022/09/22 09:19:59;;;;;;;19.50;17.50;;;13.70;99.90;;;;;;5049049;28;20328;-51
2022/09/22 09:22:32;;;;;;;37.43;33.97;;;13.80;99.90;;;;;;5048493;28;20208;-51
2022/09/22 09:25:03;;;;;;;37.10;33.63;;;13.90;99.90;;;;;;5035436;28;20300;-51
2022/09/22 09:27:57;;;;;;;17.63;15.80;;;13.90;99.90;;;;;;5048222;28;20663;-52
2022/09/22 09:30:32;;;;;;;15.23;13.80;;;14.00;99.90;;;;;;5048664;28;20232;-51
2022/09/22 09:33:02;;;;;;;39.73;35.73;;;14.10;99.90;;;;;;5046410;28;20700;-51
2022/09/22 09:35:37;;;;;;;45.33;41.03;;;14.10;99.90;;;;;;5046281;28;20665;-52
2022/09/22 09:38:12;;;;;;;48.17;43.70;;;14.10;99.90;;;;;;5048477;28;20216;-51
2022/09/22 09:40:41;;;;;;;25.20;23.07;;;14.20;99.90;;;;;;5051498;28;20328;-51
2022/09/22 09:43:10;;;;;;;81.90;75.73;;;14.30;99.90;;;;;;5052079;28;20206;-52
2022/09/22 09:45:50;;;;;;;42.50;38.50;;;14.30;99.90;;;;;;5051991;28;20384;-52
2022/09/22 09:48:28;;;;;;;38.03;34.47;;;14.30;99.90;;;;;;5052485;28;20292;-52
2022/09/22 09:51:02;;;;;;;70.63;65.07;;;14.30;99.90;;;;;;5051799;28;20225;-52
2022/09/22 09:53:32;;;;;;;36.07;32.37;;;14.40;99.90;;;;;;5051823;28;20298;-52
2022/09/22 09:56:00;;;;;;;23.77;21.63;;;14.40;99.90;;;;;;5051473;28;20301;-52
2022/09/22 10:01:23;;;;;;;28.67;26.27;;;14.50;99.90;;;;;;5026616;28;20285;-52
2022/09/22 10:03:53;;;;;;;51.53;46.40;;;14.50;99.90;;;;;;5051470;28;20214;-52
2022/09/22 10:06:25;;;;;;;41.17;37.80;;;14.50;99.90;;;;;;5052039;28;20205;-52
2022/09/22 10:08:53;;;;;;;22.23;19.27;;;14.60;99.90;;;;;;5052118;28;20296;-52
2022/09/22 10:11:30;;;;;;;10.53;9.60;;;14.70;99.90;;;;;;5051658;28;20696;-51
2022/09/22 10:13:58;;;;;;;32.70;29.53;;;14.60;99.90;;;;;;5050727;28;20289;-52
2022/09/22 10:16:29;;;;;;;70.77;65.30;;;14.70;99.90;;;;;;5052088;28;20229;-52
2022/09/22 10:19:18;;;;;;;29.97;27.27;;;14.70;99.90;;;;;;5051672;28;20661;-51
2022/09/22 10:21:46;;;;;;;77.33;70.60;;;14.80;99.90;;;;;;5041387;28;20212;-52
2022/09/22 10:24:27;;;;;;;48.40;44.20;;;14.80;99.90;;;;;;5051388;28;20262;-52
2022/09/22 10:26:56;;;;;;;15.87;14.53;;;14.90;99.90;;;;;;5049715;28;20201;-50
2022/09/22 10:29:26;;;;;;;55.47;51.03;;;14.90;99.90;;;;;;5050356;28;20233;-51
2022/09/22 10:32:13;;;;;;;38.70;35.97;;;14.90;99.90;;;;;;5050265;28;20296;-52
2022/09/22 10:34:44;;;;;;;33.17;30.53;;;15.00;99.90;;;;;;5047653;28;20308;-51
2022/09/22 10:37:19;;;;;;;32.00;29.03;;;15.00;99.90;;;;;;5051335;28;20197;-51
2022/09/22 10:39:50;;;;;;;41.73;38.30;;;15.10;99.90;;;;;;5044596;28;20315;-51
2022/09/22 10:42:31;;;;;;;84.00;77.70;;;15.20;99.90;;;;;;5049994;28;20227;-52
2022/09/22 10:45:03;;;;;;;108.83;90.10;;;15.30;99.90;;;;;;5051021;28;20303;-52
2022/09/22 10:47:42;;;;;;;18.53;16.93;;;15.30;99.90;;;;;;5050931;28;20200;-52
2022/09/22 10:50:30;;;;;;;32.30;29.73;;;15.40;99.90;;;;;;5050857;28;20225;-51
2022/09/22 10:53:10;;;;;;;53.97;49.63;;;15.40;99.90;;;;;;5038801;28;20296;-52
2022/09/22 10:55:48;;;;;;;42.72;39.08;;;15.60;99.90;;;;;;5049454;28;20681;-51
2022/09/22 10:58:27;;;;;;;86.93;78.70;;;15.70;99.90;;;;;;5049514;28;20217;-52
2022/09/22 11:01:13;;;;;;;44.40;39.80;;;15.70;99.90;;;;;;5047900;28;20960;-52
2022/09/22 11:03:57;;;;;;;34.75;32.28;;;15.70;99.90;;;;;;5049802;28;20228;-51
2022/09/22 11:12:45;;;;;;;62.90;57.80;;;15.90;99.90;;;;;;5015129;28;20202;-52
2022/09/22 11:15:30;;;;;;;59.72;54.25;;;15.90;99.90;;;;;;5049806;28;20220;-52
2022/09/22 11:18:20;;;;;;;52.33;47.43;;;16.00;99.90;;;;;;5049025;28;20332;-51
2022/09/22 11:21:00;;;;;;;49.13;44.25;;;16.00;99.90;;;;;;5049071;28;20285;-51
2022/09/22 11:23:56;;;;;;;83.32;76.68;;;16.10;99.90;;;;;;5047625;28;20208;-51
2022/09/22 11:26:47;;;;;;;97.53;90.57;;;16.10;99.90;;;;;;5041318;28;20205;-52
2022/09/22 11:29:46;;;;;;;68.13;62.97;;;16.20;99.90;;;;;;5033903;28;20280;-52
2022/09/22 11:32:39;;;;;;;81.45;74.13;;;16.20;99.90;;;;;;5036255;28;20251;-52
2022/09/22 11:35:27;;;;;;;67.82;62.15;;;16.20;99.90;;;;;;5043452;28;20293;-51
2022/09/22 11:38:09;;;;;;;48.90;44.53;;;16.20;99.90;;;;;;5050058;28;20308;-52
2022/09/22 11:41:03;;;;;;;89.38;81.47;;;16.30;99.90;;;;;;5050040;28;20235;-51
2022/09/22 11:43:57;;;;;;;116.68;108.28;;;16.40;99.90;;;;;;5040573;28;20221;-51
2022/09/22 11:46:41;;;;;;;69.13;63.55;;;16.50;99.90;;;;;;5047901;28;20209;-51
2022/09/22 11:49:21;;;;;;;87.45;80.93;;;16.60;99.90;;;;;;5048239;28;20316;-52
2022/09/22 11:52:06;;;;;;;68.63;60.78;;;16.60;99.90;;;;;;5048584;28;20317;-50
2022/09/22 11:55:02;;;;;;;102.65;93.32;;;16.70;99.90;;;;;;5048648;28;20284;-52
2022/09/22 11:57:35;;;;;;;97.45;89.05;;;16.90;99.90;;;;;;5048454;28;20252;-52
2022/09/22 12:00:06;;;;;;;110.57;101.93;;;16.90;99.90;;;;;;5049433;28;20229;-51
2022/09/22 12:02:39;;;;;;;119.25;107.50;;;17.00;99.90;;;;;;5049235;28;20197;-51
2022/09/22 12:05:10;;;;;;;91.32;83.22;;;17.10;99.90;;;;;;5043619;28;20205;-52
2022/09/22 12:07:45;;;;;;;108.32;99.07;;;17.00;99.90;;;;;;5032326;28;20302;-51
2022/09/22 12:10:21;;;;;;;82.60;75.68;;;17.10;99.90;;;;;;5046411;28;20682;-52
2022/09/22 12:12:50;;;;;;;237.80;214.02;;;17.20;99.90;;;;;;5049063;28;20202;-51
2022/09/22 12:15:24;;;;;;;97.03;88.57;;;17.30;99.90;;;;;;5049164;28;20305;-51
2022/09/22 12:18:01;;;;;;;117.35;105.93;;;17.20;99.90;;;;;;5048949;28;20205;-52
2022/09/22 12:20:39;;;;;;;101.95;93.05;;;17.20;99.90;;;;;;5049153;28;20308;-51
2022/09/22 12:23:19;;;;;;;135.20;121.47;;;17.30;99.90;;;;;;5049313;28;20289;-51
2022/09/22 12:25:52;;;;;;;108.47;100.25;;;17.40;99.90;;;;;;5039305;28;20291;-51
2022/09/22 12:28:24;;;;;;;92.00;83.93;;;17.50;99.90;;;;;;5043900;28;20289;-52
2022/09/22 12:31:04;;;;;;;127.20;117.35;;;17.50;99.90;;;;;;5047759;28;20994;-52
2022/09/22 12:33:34;;;;;;;99.72;91.43;;;17.50;99.90;;;;;;5047227;28;20302;-51
2022/09/22 12:36:05;;;;;;;106.45;98.25;;;17.70;99.90;;;;;;5049044;28;20244;-51
2022/09/22 12:38:34;;;;;;;111.47;103.15;;;17.70;99.90;;;;;;5047856;28;20658;-52
2022/09/22 12:41:04;;;;;;;150.50;138.55;;;17.70;99.90;;;;;;5048004;28;20332;-51
2022/09/22 12:43:35;;;;;;;114.45;104.18;;;17.80;99.90;;;;;;5047576;28;20202;-52
2022/09/22 12:46:16;;;;;;;111.57;102.72;;;17.70;99.90;;;;;;5047378;28;20275;-52
2022/09/22 12:48:45;;;;;;;134.00;124.20;;;17.70;99.90;;;;;;5047812;28;20197;-51
2022/09/22 12:51:31;;;;;;;109.07;98.95;;;17.80;99.90;;;;;;5045648;28;20316;-52
2022/09/22 12:54:45;;;;;;;122.18;112.85;;;17.80;99.90;;;;;;5034187;28;20635;-51
2022/09/22 12:57:43;;;;;;;148.80;135.23;;;17.80;99.90;;;;;;5042170;28;20205;-51
2022/09/22 13:00:28;;;;;;;138.93;127.10;;;17.70;99.90;;;;;;5047728;28;20272;-51
2022/09/22 13:03:00;;;;;;;87.32;80.13;;;17.60;99.90;;;;;;5047672;28;20253;-51
2022/09/22 13:05:33;;;;;;;127.30;116.93;;;17.70;99.90;;;;;;5047278;28;20205;-51
2022/09/22 13:08:02;;;;;;;117.00;107.95;;;17.70;99.90;;;;;;5047832;28;20284;-52
2022/09/22 13:10:54;;;;;;;108.75;99.53;;;17.80;99.90;;;;;;5034297;28;20233;-52
2022/09/22 13:13:35;;;;;;;113.85;104.65;;;17.80;99.90;;;;;;5043648;28;20288;-52
2022/09/22 13:16:26;;;;;;;135.20;123.95;;;17.80;99.90;;;;;;5048039;28;20769;-52
2022/09/22 13:18:59;;;;;;;119.82;109.18;;;17.80;99.90;;;;;;5047701;28;20322;-51
2022/09/22 13:21:29;;;;;;;130.65;120.47;;;17.80;99.90;;;;;;5037263;28;20940;-51
2022/09/22 13:23:58;;;;;;;112.05;104.03;;;17.80;99.90;;;;;;5047601;28;20212;-53
2022/09/22 13:26:29;;;;;;;148.10;136.25;;;17.90;99.90;;;;;;5047889;28;20209;-52
2022/09/22 13:29:18;;;;;;;126.65;116.35;;;18.00;99.90;;;;;;5048068;28;20961;-51